createdAt,value
2023-03-27T00:00:26.816Z,98770.47
2023-03-27T00:01:11.662Z,98772.09
2023-03-27T00:01:53.478Z,98746.97
2023-03-27T00:02:35.212Z,98775.75
2023-03-27T00:03:17.478Z,98781.00
2023-03-27T00:04:00.371Z,98777.94
2023-03-27T00:04:42.378Z,98778.34
2023-03-27T00:05:24.221Z,98737.50
2023-03-27T00:06:09.330Z,98788.44
2023-03-27T00:06:50.897Z,98775.81
2023-03-27T00:07:35.955Z,98781.28
2023-03-27T00:08:17.775Z,98794.09
2023-03-27T00:08:59.382Z,98791.41
2023-03-27T00:09:44.188Z,98806.84
2023-03-27T00:10:26.480Z,98798.56
2023-03-27T00:11:08.396Z,98808.09
2023-03-27T00:11:50.239Z,98798.16
2023-03-27T00:12:31.813Z,98808.47
2023-03-27T00:13:13.535Z,98802.59
2023-03-27T00:13:55.127Z,98808.47
2023-03-27T00:14:36.742Z,98810.31
2023-03-27T00:15:18.501Z,98798.91
2023-03-27T00:16:00.207Z,98806.63
2023-03-27T00:16:42.060Z,98808.63
2023-03-27T00:17:24.170Z,98816.63
2023-03-27T00:18:05.787Z,98783.28
2023-03-27T00:18:47.460Z,98822.25
2023-03-27T00:19:29.071Z,98825.31
2023-03-27T00:20:11.077Z,98810.63
2023-03-27T00:20:53.104Z,98831.81
2023-03-27T00:21:35.345Z,98836.25
2023-03-27T00:22:17.030Z,98833.63
2023-03-27T00:22:58.616Z,98826.91
2023-03-27T00:23:40.615Z,98835.81
2023-03-27T00:24:22.302Z,98832.72
2023-03-27T00:25:05.085Z,98817.22
2023-03-27T00:25:50.747Z,98831.50
2023-03-27T00:26:32.420Z,98846.38
2023-03-27T00:27:14.461Z,98835.38
2023-03-27T00:27:58.423Z,98843.72
2023-03-27T00:28:40.083Z,98833.31
2023-03-27T00:29:21.745Z,98846.09
2023-03-27T00:30:05.016Z,98807.31
2023-03-27T00:30:48.434Z,98860.00
2023-03-27T00:31:30.285Z,98859.19
2023-03-27T00:32:11.928Z,98851.81
2023-03-27T00:32:55.398Z,98853.66
2023-03-27T00:33:37.530Z,98841.59
2023-03-27T00:34:19.386Z,98847.69
2023-03-27T00:35:01.733Z,98853.41
2023-03-27T00:35:47.779Z,98863.66
2023-03-27T00:36:29.410Z,98869.75
2023-03-27T00:37:11.678Z,98870.56
2023-03-27T00:37:53.784Z,98873.00
2023-03-27T00:38:36.652Z,98873.81
2023-03-27T00:39:19.188Z,98842.66
2023-03-27T00:40:01.848Z,98851.38
2023-03-27T00:40:44.196Z,98846.91
2023-03-27T00:41:25.976Z,98875.44
2023-03-27T00:42:13.232Z,98873.00
2023-03-27T00:42:57.728Z,98866.47
2023-03-27T00:43:44.703Z,98865.19
2023-03-27T00:44:34.214Z,98860.78
2023-03-27T00:45:21.686Z,98868.59
2023-03-27T00:46:15.411Z,98883.16
2023-03-27T00:46:57.614Z,98894.06
2023-03-27T00:47:39.610Z,98880.47
2023-03-27T00:48:22.295Z,98876.09
2023-03-27T00:49:09.704Z,98857.25
2023-03-27T00:49:52.530Z,98874.84
2023-03-27T00:50:41.466Z,98877.22
2023-03-27T00:51:26.520Z,98871.31
2023-03-27T00:52:08.537Z,98878.03
2023-03-27T00:52:56.277Z,98885.13
2023-03-27T00:53:38.503Z,98884.69
2023-03-27T00:54:26.671Z,98878.97
2023-03-27T00:55:14.546Z,98892.41
2023-03-27T00:56:01.157Z,98890.41
2023-03-27T00:56:45.570Z,98894.03
2023-03-27T00:57:27.730Z,98897.69
2023-03-27T00:58:19.182Z,98886.63
2023-03-27T00:59:09.114Z,98888.97
2023-03-27T00:59:54.110Z,98874.00
2023-03-27T01:00:36.011Z,98877.09
2023-03-27T01:01:20.028Z,98905.25
2023-03-27T01:02:04.119Z,98872.94
2023-03-27T01:02:49.781Z,98877.00
2023-03-27T01:03:32.864Z,98906.59
2023-03-27T01:04:14.613Z,98897.63
2023-03-27T01:04:57.233Z,98894.28
2023-03-27T01:05:38.897Z,98892.19
2023-03-27T01:06:21.731Z,98921.53
2023-03-27T01:07:05.489Z,98915.78
2023-03-27T01:08:00.553Z,98914.16
2023-03-27T01:08:45.351Z,98914.16
2023-03-27T01:09:27.848Z,98919.41
2023-03-27T01:10:11.027Z,98926.34
2023-03-27T01:11:01.685Z,98919.41
2023-03-27T01:11:55.669Z,98919.69
2023-03-27T01:13:09.230Z,98919.69
2023-03-27T01:14:01.665Z,98909.81
2023-03-27T01:15:04.541Z,98925.34
2023-03-27T01:16:07.061Z,98906.19
2023-03-27T01:17:11.642Z,98929.97
2023-03-27T01:17:59.304Z,98929.53
2023-03-27T01:19:21.720Z,98909.91
2023-03-27T01:20:33.339Z,98930.41
2023-03-27T01:21:32.941Z,98934.06
2023-03-27T01:22:33.624Z,98938.69
2023-03-27T01:23:59.488Z,98933.78
2023-03-27T01:25:25.853Z,98941.88
2023-03-27T01:26:36.055Z,98943.69
2023-03-27T01:27:42.673Z,98948.13
2023-03-27T01:28:59.421Z,98953.28
2023-03-27T01:29:58.101Z,98959.28
2023-03-27T01:30:50.572Z,98892.50
2023-03-27T01:32:00.124Z,98954.03
2023-03-27T01:33:32.388Z,98961.28
2023-03-27T01:34:28.593Z,98928.56
2023-03-27T01:35:28.543Z,98967.38
2023-03-27T01:36:39.712Z,98964.09
2023-03-27T01:37:57.859Z,98964.22
2023-03-27T01:39:05.245Z,98964.66
2023-03-27T01:40:18.771Z,98974.00
2023-03-27T01:41:08.981Z,98976.56
2023-03-27T01:41:53.336Z,98983.47
2023-03-27T01:42:49.323Z,98982.66
2023-03-27T01:43:40.085Z,98979.03
2023-03-27T01:44:47.705Z,98986.38
2023-03-27T01:45:39.960Z,98983.91
2023-03-27T01:46:24.234Z,98962.03
2023-03-27T01:47:26.117Z,99002.47
2023-03-27T01:48:16.858Z,98995.56
2023-03-27T01:49:10.373Z,98999.53
2023-03-27T01:50:00.540Z,98982.69
2023-03-27T01:50:49.957Z,99007.53
2023-03-27T01:51:38.401Z,99005.97
2023-03-27T01:52:26.076Z,99001.94
2023-03-27T01:53:15.345Z,98993.28
2023-03-27T01:54:09.516Z,99016.44
2023-03-27T01:54:58.333Z,99014.97
2023-03-27T01:55:45.785Z,98938.22
2023-03-27T01:56:37.246Z,99017.97
2023-03-27T01:57:34.282Z,99017.03
2023-03-27T01:58:37.664Z,99022.63
2023-03-27T01:59:23.850Z,99029.72
2023-03-27T02:00:19.427Z,99034.72
2023-03-27T02:01:02.890Z,99036.03
2023-03-27T02:01:53.387Z,99035.06
2023-03-27T02:02:36.212Z,99036.28
2023-03-27T02:03:22.773Z,99036.09
2023-03-27T02:04:15.456Z,99042.34
2023-03-27T02:05:07.518Z,99051.88
2023-03-27T02:06:00.896Z,99054.84
2023-03-27T02:06:51.865Z,99059.47
2023-03-27T02:07:39.141Z,99055.38
2023-03-27T02:08:50.812Z,99059.97
2023-03-27T02:09:39.368Z,99044.72
2023-03-27T02:10:26.455Z,99058.16
2023-03-27T02:11:08.320Z,99069.34
2023-03-27T02:12:12.460Z,99075.75
2023-03-27T02:13:00.164Z,99075.59
2023-03-27T02:13:59.319Z,99077.72
2023-03-27T02:14:57.606Z,99069.06
2023-03-27T02:16:01.595Z,99076.28
2023-03-27T02:16:48.673Z,99076.47
2023-03-27T02:17:34.225Z,99073.00
2023-03-27T02:18:24.369Z,99064.19
2023-03-27T02:19:13.685Z,99079.94
2023-03-27T02:20:00.718Z,99061.22
2023-03-27T02:20:42.461Z,99085.19
2023-03-27T02:21:24.682Z,99095.38
2023-03-27T02:22:07.614Z,99091.28
2023-03-27T02:23:02.269Z,99102.63
2023-03-27T02:23:44.755Z,99099.66
2023-03-27T02:24:27.847Z,99104.91
2023-03-27T02:25:28.296Z,99105.25
2023-03-27T02:26:12.537Z,99102.63
2023-03-27T02:27:04.288Z,99109.88
2023-03-27T02:27:50.229Z,99102.81
2023-03-27T02:28:41.409Z,99109.88
2023-03-27T02:29:39.265Z,99094.63
2023-03-27T02:30:34.815Z,99112.22
2023-03-27T02:31:33.783Z,99106.94
2023-03-27T02:32:42.267Z,99112.75
2023-03-27T02:33:33.655Z,99122.59
2023-03-27T02:34:54.121Z,99122.09
2023-03-27T02:36:00.457Z,99132.13
2023-03-27T02:37:25.150Z,99128.06
2023-03-27T02:38:46.553Z,99077.34
2023-03-27T02:39:34.977Z,99133.13
2023-03-27T02:40:41.429Z,99141.34
2023-03-27T02:42:17.413Z,99140.50
2023-03-27T02:43:32.896Z,99143.97
2023-03-27T02:44:20.982Z,99146.91
2023-03-27T02:45:21.771Z,99147.41
2023-03-27T02:46:17.680Z,99119.03
2023-03-27T02:47:07.392Z,99155.28
2023-03-27T02:48:09.919Z,99154.78
2023-03-27T02:48:57.013Z,99150.22
2023-03-27T02:49:46.645Z,99160.56
2023-03-27T02:50:34.200Z,99171.56
2023-03-27T02:51:43.215Z,99172.56
2023-03-27T02:52:39.100Z,99167.28
2023-03-27T02:53:24.407Z,99178.28
2023-03-27T02:54:11.822Z,99140.38
2023-03-27T02:55:06.327Z,99171.03
2023-03-27T02:55:54.266Z,99171.69
2023-03-27T02:56:44.652Z,99188.13
2023-03-27T02:57:38.930Z,99183.88
2023-03-27T02:58:47.307Z,99176.66
2023-03-27T02:59:54.784Z,99202.09
2023-03-27T03:00:41.909Z,99183.19
2023-03-27T03:01:38.985Z,99192.41
2023-03-27T03:02:39.911Z,99182.38
2023-03-27T03:03:37.442Z,99197.50
2023-03-27T03:04:33.059Z,99185.38
2023-03-27T03:05:23.718Z,99198.97
2023-03-27T03:06:06.925Z,99198.50
2023-03-27T03:06:50.387Z,99199.66
2023-03-27T03:07:34.588Z,99194.72
2023-03-27T03:08:16.213Z,99199.16
2023-03-27T03:09:04.618Z,99196.06
2023-03-27T03:09:46.267Z,99189.84
2023-03-27T03:10:28.058Z,99195.72
2023-03-27T03:11:12.291Z,99198.34
2023-03-27T03:11:54.540Z,99194.59
2023-03-27T03:12:36.672Z,99206.59
2023-03-27T03:13:18.489Z,99220.56
2023-03-27T03:14:01.085Z,99217.94
2023-03-27T03:14:46.586Z,99218.41
2023-03-27T03:15:29.101Z,99223.50
2023-03-27T03:16:11.067Z,99213.31
2023-03-27T03:16:52.943Z,99227.59
2023-03-27T03:17:37.006Z,99221.53
2023-03-27T03:18:18.948Z,99213.66
2023-03-27T03:19:01.183Z,99227.59
2023-03-27T03:19:42.944Z,99235.81
2023-03-27T03:20:24.576Z,99190.47
2023-03-27T03:21:06.196Z,99224.16
2023-03-27T03:21:49.476Z,99117.09
2023-03-27T03:22:31.943Z,99254.06
2023-03-27T03:23:13.887Z,99247.47
2023-03-27T03:23:57.858Z,99241.56
2023-03-27T03:24:42.365Z,99247.78
2023-03-27T03:25:25.785Z,99225.97
2023-03-27T03:26:08.093Z,99250.28
2023-03-27T03:26:59.972Z,99251.59
2023-03-27T03:27:41.551Z,99258.66
2023-03-27T03:28:27.274Z,99261.91
2023-03-27T03:29:10.437Z,99251.88
2023-03-27T03:29:56.842Z,99271.59
2023-03-27T03:30:42.952Z,99269.66
2023-03-27T03:31:27.256Z,99245.66
2023-03-27T03:32:10.756Z,99265.72
2023-03-27T03:32:54.932Z,99248.78
2023-03-27T03:33:37.449Z,99275.56
2023-03-27T03:34:19.181Z,99269.81
2023-03-27T03:35:01.602Z,99266.03
2023-03-27T03:35:50.300Z,99278.34
2023-03-27T03:36:50.476Z,99254.50
2023-03-27T03:37:38.804Z,99274.53
2023-03-27T03:38:26.448Z,99278.00
2023-03-27T03:39:09.568Z,99277.81
2023-03-27T03:39:52.064Z,99287.69
2023-03-27T03:40:33.953Z,99295.56
2023-03-27T03:41:15.658Z,99277.66
2023-03-27T03:41:57.235Z,99294.94
2023-03-27T03:42:48.355Z,99295.56
2023-03-27T03:43:31.849Z,99302.16
2023-03-27T03:44:14.135Z,99297.41
2023-03-27T03:44:55.777Z,99297.56
2023-03-27T03:45:37.839Z,99293.97
2023-03-27T03:46:19.538Z,99314.81
2023-03-27T03:47:01.193Z,99306.78
2023-03-27T03:47:44.308Z,99307.59
2023-03-27T03:48:26.588Z,99311.38
2023-03-27T03:49:08.460Z,99314.16
2023-03-27T03:49:50.324Z,99318.44
2023-03-27T03:50:32.990Z,99249.06
2023-03-27T03:51:14.602Z,99314.00
2023-03-27T03:52:03.895Z,99330.38
2023-03-27T03:52:47.106Z,99332.19
2023-03-27T03:53:28.799Z,99330.69
2023-03-27T03:54:11.013Z,99333.69
2023-03-27T03:54:56.427Z,99331.88
2023-03-27T03:55:38.421Z,99325.06
2023-03-27T03:56:20.251Z,99335.94
2023-03-27T03:57:04.945Z,99347.88
2023-03-27T03:57:48.360Z,99332.06
2023-03-27T03:58:38.049Z,99338.47
2023-03-27T03:59:21.309Z,99354.72
2023-03-27T04:00:38.045Z,99348.81
2023-03-27T04:01:22.952Z,99362.66
2023-03-27T04:02:12.131Z,99369.19
2023-03-27T04:02:54.795Z,99359.63
2023-03-27T04:03:37.780Z,99373.28
2023-03-27T04:04:19.617Z,99369.47
2023-03-27T04:05:13.432Z,99359.75
2023-03-27T04:05:55.544Z,99372.41
2023-03-27T04:06:37.784Z,99380.13
2023-03-27T04:07:21.738Z,99376.16
2023-03-27T04:08:08.404Z,99372.00
2023-03-27T04:08:50.165Z,99388.00
2023-03-27T04:09:54.896Z,99362.28
2023-03-27T04:10:41.562Z,99387.97
2023-03-27T04:11:46.955Z,99386.16
2023-03-27T04:12:33.752Z,99409.00
2023-03-27T04:13:16.844Z,99415.53
2023-03-27T04:14:11.369Z,99414.53
2023-03-27T04:14:57.104Z,99412.03
2023-03-27T04:16:14.489Z,99425.69
2023-03-27T04:17:01.781Z,99415.94
2023-03-27T04:17:44.381Z,99424.34
2023-03-27T04:18:32.622Z,99430.91
2023-03-27T04:19:18.104Z,99431.03
2023-03-27T04:20:02.230Z,99434.66
2023-03-27T04:20:49.795Z,99439.38
2023-03-27T04:21:33.117Z,99430.97
2023-03-27T04:22:17.261Z,99438.41
2023-03-27T04:23:02.143Z,99434.78
2023-03-27T04:23:45.994Z,99441.84
2023-03-27T04:24:32.775Z,99435.72
2023-03-27T04:25:17.305Z,99448.50
2023-03-27T04:26:01.974Z,99445.53
2023-03-27T04:27:01.939Z,99451.09
2023-03-27T04:27:53.733Z,99456.13
2023-03-27T04:28:39.879Z,99426.31
2023-03-27T04:29:43.415Z,99447.06
2023-03-27T04:30:44.702Z,99460.56
2023-03-27T04:31:46.535Z,99465.13
2023-03-27T04:32:52.850Z,99458.91
2023-03-27T04:33:53.126Z,99466.63
2023-03-27T04:35:00.845Z,99477.91
2023-03-27T04:36:05.306Z,99473.50
2023-03-27T04:36:58.378Z,99476.13
2023-03-27T04:37:41.590Z,99462.41
2023-03-27T04:38:41.649Z,99471.25
2023-03-27T04:39:23.324Z,99466.50
2023-03-27T04:40:06.803Z,99475.53
2023-03-27T04:40:49.257Z,99476.16
2023-03-27T04:41:32.530Z,99480.34
2023-03-27T04:42:14.490Z,99483.78
2023-03-27T04:42:56.464Z,99490.25
2023-03-27T04:43:40.046Z,99485.97
2023-03-27T04:44:21.814Z,99483.41
2023-03-27T04:45:04.159Z,99483.56
2023-03-27T04:45:48.668Z,99494.72
2023-03-27T04:46:31.856Z,99478.41
2023-03-27T04:47:20.568Z,99495.16
2023-03-27T04:48:05.953Z,99484.91
2023-03-27T04:48:48.031Z,99495.94
2023-03-27T04:49:40.371Z,99496.47
2023-03-27T04:50:32.352Z,99504.16
2023-03-27T04:51:14.185Z,99508.75
2023-03-27T04:51:57.258Z,99508.53
2023-03-27T04:52:42.738Z,99498.78
2023-03-27T04:53:30.008Z,99515.72
2023-03-27T04:54:11.874Z,99507.91
2023-03-27T04:54:58.791Z,99527.25
2023-03-27T04:55:41.836Z,99521.66
2023-03-27T04:56:24.919Z,99530.84
2023-03-27T04:57:09.882Z,99534.44
2023-03-27T04:57:51.579Z,99523.31
2023-03-27T04:58:36.736Z,99513.81
2023-03-27T04:59:23.390Z,99526.22
2023-03-27T05:00:28.200Z,99542.00
2023-03-27T05:01:30.248Z,99539.03
2023-03-27T05:02:12.874Z,99547.41
2023-03-27T05:03:03.458Z,99551.81
2023-03-27T05:03:56.902Z,99540.38
2023-03-27T05:05:14.548Z,99529.03
2023-03-27T05:05:56.270Z,99541.78
2023-03-27T05:06:39.931Z,99556.63
2023-03-27T05:07:26.534Z,99559.94
2023-03-27T05:08:08.222Z,99558.28
2023-03-27T05:08:50.289Z,99550.06
2023-03-27T05:09:40.074Z,99512.16
2023-03-27T05:10:23.406Z,99554.56
2023-03-27T05:11:07.696Z,99568.78
2023-03-27T05:11:56.331Z,99569.22
2023-03-27T05:12:46.101Z,99566.53
2023-03-27T05:13:29.673Z,99574.25
2023-03-27T05:14:11.497Z,99567.63
2023-03-27T05:14:55.778Z,99539.06
2023-03-27T05:15:53.171Z,99552.31
2023-03-27T05:16:37.440Z,99572.81
2023-03-27T05:17:21.175Z,99577.41
2023-03-27T05:18:02.890Z,99441.03
2023-03-27T05:18:46.295Z,99566.31
2023-03-27T05:19:27.988Z,99566.44
2023-03-27T05:20:17.092Z,99568.38
2023-03-27T05:20:59.345Z,99569.19
2023-03-27T05:21:41.066Z,99584.66
2023-03-27T05:22:24.887Z,99595.38
2023-03-27T05:23:15.044Z,99603.91
2023-03-27T05:23:56.696Z,99586.44
2023-03-27T05:24:39.867Z,99607.50
2023-03-27T05:25:22.563Z,99601.72
2023-03-27T05:26:05.033Z,99598.84
2023-03-27T05:27:10.190Z,99609.19
2023-03-27T05:27:56.159Z,99599.56
2023-03-27T05:28:40.998Z,99621.16
2023-03-27T05:29:22.636Z,99628.25
2023-03-27T05:30:18.297Z,99609.75
2023-03-27T05:31:01.428Z,99625.75
2023-03-27T05:31:46.774Z,99629.34
2023-03-27T05:33:00.795Z,99599.22
2023-03-27T05:33:44.833Z,99615.59
2023-03-27T05:34:27.023Z,99623.31
2023-03-27T05:35:11.198Z,99614.50
2023-03-27T05:35:57.478Z,99624.28
2023-03-27T05:36:40.642Z,99628.84
2023-03-27T05:37:22.644Z,99637.81
2023-03-27T05:38:28.173Z,99642.50
2023-03-27T05:39:27.068Z,99636.19
2023-03-27T05:40:09.152Z,99624.22
2023-03-27T05:40:52.277Z,99620.66
2023-03-27T05:41:35.191Z,99653.41
2023-03-27T05:42:18.369Z,99646.38
2023-03-27T05:43:00.888Z,99645.88
2023-03-27T05:43:45.253Z,99631.13
2023-03-27T05:44:28.710Z,99642.41
2023-03-27T05:45:11.717Z,99615.31
2023-03-27T05:45:55.401Z,99616.28
2023-03-27T05:46:37.235Z,99655.22
2023-03-27T05:47:27.029Z,99649.59
2023-03-27T05:48:09.494Z,99658.94
2023-03-27T05:48:55.917Z,99649.75
2023-03-27T05:49:39.128Z,99648.22
2023-03-27T05:50:29.831Z,99662.25
2023-03-27T05:51:13.590Z,99661.56
2023-03-27T05:51:55.251Z,99660.09
2023-03-27T05:52:37.525Z,99658.69
2023-03-27T05:53:19.465Z,99661.75
2023-03-27T05:54:19.594Z,99667.94
2023-03-27T05:55:08.236Z,99659.25
2023-03-27T05:56:03.179Z,99668.63
2023-03-27T05:56:52.101Z,99661.75
2023-03-27T05:57:37.613Z,99684.88
2023-03-27T05:58:19.233Z,99686.81
2023-03-27T05:59:02.231Z,99681.19
2023-03-27T05:59:45.787Z,99645.75
2023-03-27T06:00:38.341Z,99686.94
2023-03-27T06:01:20.820Z,99688.47
2023-03-27T06:02:02.562Z,99679.41
2023-03-27T06:02:59.009Z,99690.25
2023-03-27T06:03:56.107Z,99697.28
2023-03-27T06:04:54.198Z,99699.50
2023-03-27T06:05:50.796Z,99690.53
2023-03-27T06:06:33.095Z,99697.41
2023-03-27T06:07:14.877Z,99706.91
2023-03-27T06:08:00.180Z,99694.53
2023-03-27T06:08:42.144Z,99710.38
2023-03-27T06:09:24.066Z,99696.47
2023-03-27T06:10:30.141Z,99711.19
2023-03-27T06:11:23.854Z,99706.09
2023-03-27T06:12:05.945Z,99700.47
2023-03-27T06:13:03.806Z,99726.94
2023-03-27T06:13:51.596Z,99721.13
2023-03-27T06:14:38.457Z,99691.34
2023-03-27T06:15:39.018Z,99733.53
2023-03-27T06:16:31.367Z,99735.31
2023-03-27T06:17:26.546Z,99735.31
2023-03-27T06:18:14.152Z,99739.72
2023-03-27T06:18:56.183Z,99735.19
2023-03-27T06:19:38.268Z,99744.84
2023-03-27T06:20:21.337Z,99722.09
2023-03-27T06:21:07.305Z,99679.38
2023-03-27T06:21:48.934Z,99666.28
2023-03-27T06:22:30.615Z,99729.56
2023-03-27T06:23:12.965Z,99729.94
2023-03-27T06:23:56.280Z,99748.16
2023-03-27T06:24:37.917Z,99727.34
2023-03-27T06:25:20.277Z,99747.44
2023-03-27T06:26:02.037Z,99747.44
2023-03-27T06:26:45.331Z,99744.84
2023-03-27T06:27:28.292Z,99748.41
2023-03-27T06:28:11.049Z,99746.63
2023-03-27T06:28:58.946Z,99755.19
2023-03-27T06:29:42.952Z,99724.59
2023-03-27T06:30:25.903Z,99761.66
2023-03-27T06:31:27.127Z,99724.28
2023-03-27T06:32:32.272Z,99766.31
2023-03-27T06:33:15.167Z,99764.53
2023-03-27T06:33:58.175Z,99750.91
2023-03-27T06:35:08.185Z,99778.00
2023-03-27T06:36:19.491Z,99786.25
2023-03-27T06:37:03.575Z,99771.06
2023-03-27T06:37:51.821Z,99763.88
2023-03-27T06:38:37.137Z,99783.13
2023-03-27T06:39:19.715Z,99776.66
2023-03-27T06:40:09.382Z,99784.88
2023-03-27T06:40:52.676Z,99767.06
2023-03-27T06:41:34.442Z,99800.28
2023-03-27T06:42:27.297Z,99789.66
2023-03-27T06:43:34.060Z,99798.97
2023-03-27T06:44:24.092Z,99803.91
2023-03-27T06:45:27.350Z,99801.84
2023-03-27T06:46:42.732Z,99806.06
2023-03-27T06:47:44.764Z,99798.31
2023-03-27T06:48:51.324Z,99819.00
2023-03-27T06:49:33.917Z,99821.75
2023-03-27T06:50:26.045Z,99803.44
2023-03-27T06:51:12.039Z,99819.81
2023-03-27T06:51:53.789Z,99816.34
2023-03-27T06:52:37.144Z,99800.44
2023-03-27T06:53:36.684Z,99830.59
2023-03-27T06:54:20.705Z,99816.34
2023-03-27T06:55:07.352Z,99833.97
2023-03-27T06:56:02.824Z,99837.16
2023-03-27T06:57:00.789Z,99819.38
2023-03-27T06:57:49.816Z,99839.50
2023-03-27T06:58:33.648Z,99841.13
2023-03-27T06:59:15.617Z,99843.59
2023-03-27T07:00:00.267Z,99842.47
2023-03-27T07:01:06.067Z,99832.25
2023-03-27T07:02:11.094Z,99811.47
2023-03-27T07:03:11.925Z,99851.03
2023-03-27T07:04:16.718Z,99849.25
2023-03-27T07:05:36.789Z,99846.75
2023-03-27T07:06:19.368Z,99839.16
2023-03-27T07:07:06.826Z,99855.19
2023-03-27T07:07:54.064Z,99850.34
2023-03-27T07:08:40.645Z,99853.81
2023-03-27T07:09:22.740Z,99853.69
2023-03-27T07:10:14.375Z,99860.94
2023-03-27T07:11:10.872Z,99862.31
2023-03-27T07:11:57.254Z,99867.00
2023-03-27T07:12:38.995Z,99858.16
2023-03-27T07:13:20.891Z,99849.72
2023-03-27T07:14:02.611Z,99872.72
2023-03-27T07:14:45.386Z,99876.84
2023-03-27T07:15:27.206Z,99843.03
2023-03-27T07:16:12.353Z,99864.09
2023-03-27T07:16:54.169Z,99865.34
2023-03-27T07:17:48.602Z,99877.78
2023-03-27T07:18:32.808Z,99863.03
2023-03-27T07:19:14.431Z,99875.19
2023-03-27T07:19:59.921Z,99876.00
2023-03-27T07:20:45.397Z,99867.00
2023-03-27T07:21:31.016Z,99878.84
2023-03-27T07:22:15.249Z,99852.56
2023-03-27T07:23:01.635Z,99891.00
2023-03-27T07:24:03.682Z,99890.50
2023-03-27T07:24:47.602Z,99898.69
2023-03-27T07:25:36.862Z,99893.69
2023-03-27T07:26:20.399Z,99893.16
2023-03-27T07:27:14.708Z,99902.19
2023-03-27T07:28:00.400Z,99893.06
2023-03-27T07:28:44.497Z,99870.06
2023-03-27T07:29:27.333Z,99893.91
2023-03-27T07:30:13.212Z,99863.00
2023-03-27T07:30:56.488Z,99902.41
2023-03-27T07:32:36.290Z,99907.53
2023-03-27T07:33:19.282Z,99906.19
2023-03-27T07:34:01.618Z,99914.00
2023-03-27T07:35:06.591Z,99923.41
2023-03-27T07:36:11.452Z,99919.09
2023-03-27T07:37:01.859Z,99906.25
2023-03-27T07:37:44.707Z,99929.09
2023-03-27T07:38:46.703Z,99930.09
2023-03-27T07:39:39.694Z,99923.31
2023-03-27T07:40:26.604Z,99938.34
2023-03-27T07:41:32.173Z,99922.19
2023-03-27T07:42:14.021Z,99932.94
2023-03-27T07:43:16.471Z,99941.09
2023-03-27T07:43:59.207Z,99919.81
2023-03-27T07:44:45.224Z,99939.59
2023-03-27T07:45:26.958Z,99939.47
2023-03-27T07:46:12.267Z,99940.59
2023-03-27T07:46:54.946Z,99924.69
2023-03-27T07:47:36.646Z,99931.75
2023-03-27T07:48:18.855Z,99925.59
2023-03-27T07:49:01.096Z,99947.00
2023-03-27T07:49:43.114Z,99943.63
2023-03-27T07:50:27.673Z,99942.94
2023-03-27T07:51:13.854Z,99859.75
2023-03-27T07:51:56.384Z,99922.75
2023-03-27T07:52:40.559Z,99952.72
2023-03-27T07:53:33.732Z,99962.28
2023-03-27T07:54:24.513Z,99961.44
2023-03-27T07:55:08.507Z,99945.16
2023-03-27T07:55:58.943Z,99972.56
2023-03-27T07:56:41.140Z,99966.16
2023-03-27T07:57:59.856Z,99978.63
2023-03-27T07:58:45.018Z,99970.16
2023-03-27T07:59:32.361Z,99985.06
2023-03-27T08:00:22.819Z,99919.41
2023-03-27T08:01:16.290Z,99977.00
2023-03-27T08:01:57.904Z,99979.00
2023-03-27T08:02:43.297Z,99991.09
2023-03-27T08:03:26.278Z,99988.28
2023-03-27T08:04:10.101Z,99993.41
2023-03-27T08:04:55.999Z,99998.53
2023-03-27T08:05:38.359Z,99996.91
2023-03-27T08:06:26.042Z,99991.97
2023-03-27T08:07:08.446Z,99995.13
2023-03-27T08:07:51.700Z,99997.75
2023-03-27T08:08:51.548Z,99981.75
2023-03-27T08:09:33.423Z,99992.31
2023-03-27T08:10:16.067Z,99990.38
2023-03-27T08:11:23.224Z,99997.66
2023-03-27T08:12:12.114Z,99952.72
2023-03-27T08:12:57.566Z,99991.03
2023-03-27T08:13:39.778Z,99991.38
2023-03-27T08:14:22.422Z,99997.44
2023-03-27T08:15:06.574Z,99968.44
2023-03-27T08:15:48.496Z,99990.06
2023-03-27T08:16:37.026Z,99938.88
2023-03-27T08:17:20.039Z,99971.34
2023-03-27T08:18:04.362Z,99987.00
2023-03-27T08:18:46.862Z,99995.19
2023-03-27T08:19:29.086Z,99981.94
2023-03-27T08:20:15.161Z,99994.03
2023-03-27T08:21:03.709Z,99998.16
2023-03-27T08:21:45.903Z,99991.50
2023-03-27T08:22:28.227Z,99989.78
2023-03-27T08:23:28.917Z,100000.44
2023-03-27T08:24:19.361Z,99995.88
2023-03-27T08:25:23.021Z,100001.69
2023-03-27T08:26:05.529Z,100001.88
2023-03-27T08:26:53.489Z,99996.94
2023-03-27T08:27:35.132Z,99998.72
2023-03-27T08:28:17.130Z,100001.78
2023-03-27T08:28:59.456Z,100001.63
2023-03-27T08:29:44.824Z,100009.50
2023-03-27T08:30:26.607Z,99981.69
2023-03-27T08:31:16.180Z,100008.06
2023-03-27T08:31:59.351Z,100016.38
2023-03-27T08:32:42.203Z,100011.00
2023-03-27T08:33:27.590Z,100013.34
2023-03-27T08:34:09.320Z,100022.53
2023-03-27T08:34:58.988Z,100019.81
2023-03-27T08:35:40.665Z,100008.00
2023-03-27T08:36:23.062Z,99999.38
2023-03-27T08:37:08.728Z,100024.44
2023-03-27T08:38:26.308Z,100022.22
2023-03-27T08:39:30.831Z,100004.91
2023-03-27T08:40:21.104Z,100013.59
2023-03-27T08:41:03.856Z,100026.59
2023-03-27T08:41:55.861Z,100033.19
2023-03-27T08:43:12.222Z,100026.41
2023-03-27T08:43:56.709Z,100031.59
2023-03-27T08:44:38.980Z,100039.84
2023-03-27T08:45:36.908Z,100037.28
2023-03-27T08:46:23.642Z,100038.03
2023-03-27T08:47:26.808Z,100032.44
2023-03-27T08:48:21.848Z,100044.53
2023-03-27T08:49:15.048Z,100048.03
2023-03-27T08:50:05.797Z,100045.84
2023-03-27T08:51:03.710Z,100037.91
2023-03-27T08:52:01.691Z,100040.31
2023-03-27T08:52:46.824Z,100050.41
2023-03-27T08:53:58.709Z,100037.22
2023-03-27T08:54:48.285Z,100033.69
2023-03-27T08:55:42.382Z,100041.91
2023-03-27T08:56:32.915Z,100048.22
2023-03-27T08:57:23.105Z,100053.19
2023-03-27T08:58:19.009Z,100054.94
2023-03-27T08:59:01.710Z,100047.59
2023-03-27T08:59:43.533Z,100050.13
2023-03-27T09:00:36.884Z,100043.75
2023-03-27T09:02:12.487Z,100051.47
2023-03-27T09:03:18.229Z,100062.84
2023-03-27T09:04:09.955Z,100055.91
2023-03-27T09:05:06.145Z,100057.47
2023-03-27T09:05:59.007Z,100063.38
2023-03-27T09:06:51.318Z,100058.31
2023-03-27T09:07:45.928Z,100064.06
2023-03-27T09:09:07.093Z,100063.34
2023-03-27T09:09:59.867Z,100058.00
2023-03-27T09:10:56.808Z,100070.09
2023-03-27T09:12:22.910Z,100071.19
2023-03-27T09:13:18.918Z,100053.50
2023-03-27T09:14:04.828Z,100071.28
2023-03-27T09:14:51.475Z,100053.78
2023-03-27T09:15:40.776Z,100072.22
2023-03-27T09:16:25.349Z,100073.03
2023-03-27T09:17:17.033Z,100064.88
2023-03-27T09:18:38.791Z,100076.84
2023-03-27T09:19:38.179Z,100070.78
2023-03-27T09:20:30.354Z,100078.78
2023-03-27T09:21:21.197Z,100074.44
2023-03-27T09:22:10.307Z,100075.41
2023-03-27T09:23:42.022Z,100072.44
2023-03-27T09:24:43.240Z,100070.16
2023-03-27T09:25:50.057Z,100073.13
2023-03-27T09:26:57.980Z,100069.75
2023-03-27T09:28:19.329Z,100053.13
2023-03-27T09:29:24.864Z,100064.09
2023-03-27T09:30:23.641Z,100060.28
2023-03-27T09:31:24.810Z,100067.75
2023-03-27T09:32:14.467Z,100064.66
2023-03-27T09:33:01.838Z,100055.69
2023-03-27T09:33:44.712Z,100057.34
2023-03-27T09:34:33.962Z,100054.75
2023-03-27T09:35:18.990Z,100055.41
2023-03-27T09:36:02.068Z,100066.94
2023-03-27T09:36:44.551Z,100068.66
2023-03-27T09:37:27.524Z,100054.81
2023-03-27T09:38:19.913Z,100071.53
2023-03-27T09:39:13.027Z,100068.06